Time;durP1;ratioP1;P1;durP2;ratioP2;P2;SDS_P1;SDS_P2;PMS_P1;PMS_P2;Temp;Humidity;BMP_temperature;BMP_pressure;BME280_temperature;BME280_humidity;BME280_pressure;Samples;Min_cycle;Max_cycle;Signal;HPM_P1;HPM_P2
2023/08/09 00:01:50;;;;;;;2.50;1.50;;;;;;;;;;4974818;28;20027;-69
2023/08/09 00:04:16;;;;;;;2.05;1.52;;;;;;;;;;4974333;28;20415;-70
2023/08/09 00:06:43;;;;;;;3.53;1.55;;;;;;;;;;4975188;28;20041;-70
2023/08/09 00:09:09;;;;;;;2.13;1.65;;;;;;;;;;4974539;28;20476;-70
2023/08/09 00:11:36;;;;;;;2.53;1.73;;;;;;;;;;4974580;28;20097;-70
2023/08/09 00:14:02;;;;;;;2.92;1.60;;;;;;;;;;4974399;28;20080;-70
2023/08/09 00:16:29;;;;;;;2.45;1.67;;;;;;;;;;4974291;28;20027;-69
2023/08/09 00:18:55;;;;;;;3.10;1.60;;;;;;;;;;4973976;28;20379;-70
2023/08/09 00:21:21;;;;;;;1.85;1.40;;;;;;;;;;4974334;28;20027;-70
2023/08/09 00:23:48;;;;;;;2.92;1.77;;;;;;;;;;4974172;28;20400;-70
2023/08/09 00:26:14;;;;;;;3.47;1.65;;;;;;;;;;4974295;28;20026;-70
2023/08/09 00:28:40;;;;;;;5.22;1.83;;;;;;;;;;4973950;28;20019;-70
2023/08/09 00:31:07;;;;;;;2.28;1.80;;;;;;;;;;4973444;28;20042;-70
2023/08/09 00:33:33;;;;;;;2.58;1.58;;;;;;;;;;4973975;28;20084;-70
2023/08/09 00:35:59;;;;;;;2.30;1.80;;;;;;;;;;4974264;28;20033;-70
2023/08/09 00:38:26;;;;;;;4.15;1.67;;;;;;;;;;4974185;28;20037;-70
2023/08/09 00:40:52;;;;;;;2.80;1.58;;;;;;;;;;4974253;28;20033;-70
2023/08/09 00:43:18;;;;;;;1.90;1.50;;;;;;;;;;4974125;28;20369;-70
2023/08/09 00:45:47;;;;;;;3.22;1.67;;;;;;;;;;4973953;28;20023;-70
2023/08/09 00:48:13;;;;;;;2.20;1.65;;;;;;;;;;4973881;28;20038;-70
2023/08/09 00:50:40;;;;;;;2.72;1.70;;;;;;;;;;4974107;28;20045;-70
2023/08/09 00:53:07;;;;;;;3.25;1.80;;;;;;;;;;4974014;28;20034;-70
2023/08/09 00:55:33;;;;;;;2.63;1.90;;;;;;;;;;4974103;28;20019;-70
2023/08/09 00:57:59;;;;;;;3.50;1.60;;;;;;;;;;4973811;28;20073;-70
2023/08/09 01:00:26;;;;;;;2.30;1.75;;;;;;;;;;4973635;28;20026;-70
2023/08/09 01:02:52;;;;;;;2.63;1.83;;;;;;;;;;4973554;28;20081;-70
2023/08/09 01:05:18;;;;;;;2.40;1.67;;;;;;;;;;4973816;28;20023;-70
2023/08/09 01:08:14;;;;;;;2.88;1.85;;;;;;;;;;4973749;28;20023;-70
2023/08/09 01:11:09;;;;;;;2.88;2.08;;;;;;;;;;4961253;28;20102;-70
2023/08/09 01:13:37;;;;;;;4.95;1.80;;;;;;;;;;4913955;29;20050;-70
2023/08/09 01:16:05;;;;;;;2.67;1.55;;;;;;;;;;4914210;29;20054;-70
2023/08/09 01:18:31;;;;;;;6.43;1.75;;;;;;;;;;4898250;29;20055;-70
2023/08/09 01:20:58;;;;;;;2.22;1.90;;;;;;;;;;4914310;29;20413;-70
2023/08/09 01:23:35;;;;;;;2.38;1.58;;;;;;;;;;4914409;29;20044;-70
2023/08/09 01:26:01;;;;;;;4.07;1.73;;;;;;;;;;4913882;29;20408;-70
2023/08/09 01:28:28;;;;;;;3.85;1.80;;;;;;;;;;4914169;29;20036;-69
2023/08/09 01:30:54;;;;;;;3.83;1.80;;;;;;;;;;4913660;29;20046;-70
2023/08/09 01:33:20;;;;;;;1.83;1.63;;;;;;;;;;4914128;29;20032;-70
2023/08/09 01:35:55;;;;;;;4.88;1.95;;;;;;;;;;4913949;29;20028;-70
2023/08/09 01:38:24;;;;;;;1.60;1.50;;;;;;;;;;4898102;29;20128;-70
2023/08/09 01:40:51;;;;;;;5.03;2.00;;;;;;;;;;4914029;29;20032;-70
2023/08/09 01:43:18;;;;;;;2.90;1.63;;;;;;;;;;4916418;29;20143;-70
2023/08/09 01:45:44;;;;;;;2.60;1.92;;;;;;;;;;4917453;29;20036;-70
2023/08/09 01:48:11;;;;;;;3.72;1.83;;;;;;;;;;4917569;29;20036;-70
2023/08/09 01:50:37;;;;;;;3.15;1.90;;;;;;;;;;4963085;28;20030;-70
2023/08/09 01:53:03;;;;;;;2.30;1.60;;;;;;;;;;4977058;28;20034;-69
2023/08/09 01:55:31;;;;;;;3.88;1.95;;;;;;;;;;4977271;28;20015;-70
2023/08/09 01:57:57;;;;;;;3.85;1.83;;;;;;;;;;4977422;28;20054;-70
2023/08/09 02:00:24;;;;;;;2.33;1.52;;;;;;;;;;4976718;28;20045;-70
2023/08/09 02:02:51;;;;;;;2.60;2.00;;;;;;;;;;4976789;28;20056;-70
2023/08/09 02:05:18;;;;;;;2.00;1.65;;;;;;;;;;4977089;28;20027;-70
2023/08/09 02:07:44;;;;;;;2.95;1.80;;;;;;;;;;4976855;28;20023;-70
2023/08/09 02:10:11;;;;;;;4.03;1.92;;;;;;;;;;4976932;28;20025;-70
2023/08/09 02:12:38;;;;;;;3.05;1.90;;;;;;;;;;4976500;28;20402;-70
2023/08/09 02:15:05;;;;;;;3.72;1.95;;;;;;;;;;4974842;28;20050;-69
2023/08/09 02:17:31;;;;;;;3.00;1.80;;;;;;;;;;4976476;28;20026;-69
2023/08/09 02:19:58;;;;;;;3.08;1.60;;;;;;;;;;4976721;28;20023;-69
2023/08/09 02:22:25;;;;;;;2.28;1.58;;;;;;;;;;4976649;28;20033;-70
2023/08/09 02:24:52;;;;;;;2.20;1.63;;;;;;;;;;4976533;28;20027;-70
2023/08/09 02:27:19;;;;;;;2.38;1.83;;;;;;;;;;4976687;28;20021;-69
2023/08/09 02:29:46;;;;;;;2.13;1.50;;;;;;;;;;4976002;28;20033;-69
2023/08/09 02:32:14;;;;;;;4.07;1.75;;;;;;;;;;4976343;28;20049;-69
2023/08/09 02:34:40;;;;;;;3.35;1.70;;;;;;;;;;4976247;28;20026;-70
2023/08/09 02:37:07;;;;;;;2.65;1.70;;;;;;;;;;4976080;28;20419;-69
2023/08/09 02:39:35;;;;;;;5.30;2.00;;;;;;;;;;4976392;28;20019;-70
2023/08/09 02:42:01;;;;;;;2.20;1.80;;;;;;;;;;4976221;28;20034;-69
2023/08/09 02:44:27;;;;;;;4.55;2.03;;;;;;;;;;4975828;28;20424;-70
2023/08/09 02:46:53;;;;;;;2.10;1.60;;;;;;;;;;4976138;28;20399;-70
2023/08/09 02:49:20;;;;;;;2.30;1.70;;;;;;;;;;4975746;28;20088;-69
2023/08/09 02:51:46;;;;;;;2.22;1.95;;;;;;;;;;4976011;28;20035;-70
2023/08/09 02:54:13;;;;;;;3.72;1.65;;;;;;;;;;4975037;28;20085;-70
2023/08/09 02:56:39;;;;;;;4.25;1.90;;;;;;;;;;4975730;28;20037;-70
2023/08/09 02:59:05;;;;;;;1.67;1.58;;;;;;;;;;4975535;28;20501;-69
2023/08/09 03:01:33;;;;;;;4.10;1.73;;;;;;;;;;4975875;28;20023;-70
2023/08/09 03:03:59;;;;;;;3.28;1.60;;;;;;;;;;4976059;28;20027;-70
2023/08/09 03:06:26;;;;;;;3.03;1.60;;;;;;;;;;4975838;28;20073;-70
2023/08/09 03:08:53;;;;;;;3.95;2.00;;;;;;;;;;4975688;28;20025;-70
2023/08/09 03:11:22;;;;;;;2.22;1.65;;;;;;;;;;4975628;28;20041;-70
2023/08/09 03:13:49;;;;;;;3.08;1.90;;;;;;;;;;4975228;28;20049;-69
2023/08/09 03:16:15;;;;;;;3.50;1.80;;;;;;;;;;4975458;28;20027;-69
2023/08/09 03:18:42;;;;;;;2.83;1.80;;;;;;;;;;4975604;28;20030;-70
2023/08/09 03:21:09;;;;;;;2.55;1.80;;;;;;;;;;4975402;28;20027;-69
2023/08/09 03:23:36;;;;;;;2.83;1.77;;;;;;;;;;4975447;28;20030;-70
2023/08/09 03:26:02;;;;;;;4.28;1.83;;;;;;;;;;4975925;28;20031;-70
2023/08/09 03:28:29;;;;;;;3.60;2.08;;;;;;;;;;4974937;28;20033;-70
2023/08/09 03:30:55;;;;;;;4.13;2.10;;;;;;;;;;4974132;28;20035;-70
2023/08/09 03:33:22;;;;;;;2.47;1.70;;;;;;;;;;4975129;28;20037;-69
2023/08/09 03:35:48;;;;;;;3.95;2.03;;;;;;;;;;4975331;28;20031;-70
2023/08/09 03:38:15;;;;;;;2.10;1.88;;;;;;;;;;4975313;28;20031;-70
2023/08/09 03:40:41;;;;;;;4.95;2.00;;;;;;;;;;4975185;28;20018;-70
2023/08/09 03:43:07;;;;;;;3.03;2.22;;;;;;;;;;4974616;28;20476;-69
2023/08/09 03:45:33;;;;;;;6.20;1.83;;;;;;;;;;4975334;28;20023;-70
2023/08/09 03:48:00;;;;;;;2.92;1.92;;;;;;;;;;4974787;28;20026;-70
2023/08/09 03:50:26;;;;;;;4.20;2.17;;;;;;;;;;4973626;28;20033;-70
2023/08/09 03:52:53;;;;;;;2.35;1.55;;;;;;;;;;4974775;28;20047;-70
2023/08/09 03:55:20;;;;;;;5.07;1.85;;;;;;;;;;4974806;28;20027;-70
2023/08/09 03:57:47;;;;;;;3.28;1.98;;;;;;;;;;4974504;28;20037;-70
2023/08/09 04:00:17;;;;;;;2.80;1.95;;;;;;;;;;4974705;28;20037;-69
2023/08/09 04:02:45;;;;;;;3.05;1.80;;;;;;;;;;4974577;28;20411;-69
2023/08/09 04:05:11;;;;;;;3.70;1.58;;;;;;;;;;4974630;28;20031;-69
2023/08/09 04:07:38;;;;;;;3.28;1.90;;;;;;;;;;4974605;28;20019;-70
2023/08/09 04:10:06;;;;;;;3.72;2.00;;;;;;;;;;4974793;28;20039;-70
2023/08/09 04:12:33;;;;;;;3.45;1.95;;;;;;;;;;4974232;28;20100;-70
2023/08/09 04:14:59;;;;;;;3.40;1.95;;;;;;;;;;4974265;28;20043;-70
2023/08/09 04:17:25;;;;;;;2.53;2.08;;;;;;;;;;4974187;28;20030;-70
2023/08/09 04:19:52;;;;;;;3.08;2.22;;;;;;;;;;4974810;28;20023;-70
2023/08/09 04:22:19;;;;;;;4.10;2.15;;;;;;;;;;4974388;28;20022;-69
2023/08/09 04:24:45;;;;;;;2.75;1.95;;;;;;;;;;4974279;28;20093;-69
2023/08/09 04:27:11;;;;;;;3.15;2.15;;;;;;;;;;4974491;28;20027;-69
2023/08/09 04:29:38;;;;;;;4.03;1.90;;;;;;;;;;4974249;28;20391;-69
2023/08/09 04:32:04;;;;;;;2.63;1.67;;;;;;;;;;4974208;28;20045;-69
2023/08/09 04:34:30;;;;;;;2.30;1.73;;;;;;;;;;4974085;28;20069;-69
2023/08/09 04:36:57;;;;;;;2.20;1.80;;;;;;;;;;4974362;28;20040;-69
2023/08/09 04:39:23;;;;;;;2.83;1.88;;;;;;;;;;4973838;28;20027;-69
2023/08/09 04:41:50;;;;;;;2.90;2.00;;;;;;;;;;4974024;28;20029;-69
2023/08/09 04:44:17;;;;;;;4.40;1.83;;;;;;;;;;4974212;28;20022;-69
2023/08/09 04:46:44;;;;;;;3.17;1.83;;;;;;;;;;4973929;28;20026;-70
2023/08/09 04:49:12;;;;;;;6.82;2.25;;;;;;;;;;4974092;28;20031;-69
2023/08/09 04:51:38;;;;;;;2.60;1.75;;;;;;;;;;4972649;28;20058;-69
2023/08/09 04:54:05;;;;;;;5.25;1.80;;;;;;;;;;4973875;28;20023;-69
2023/08/09 04:56:31;;;;;;;3.22;1.77;;;;;;;;;;4974382;28;20039;-69
2023/08/09 04:58:58;;;;;;;3.88;1.90;;;;;;;;;;4973820;28;20022;-70
2023/08/09 05:01:24;;;;;;;2.30;1.70;;;;;;;;;;4973982;28;20035;-69
2023/08/09 05:03:50;;;;;;;8.32;2.22;;;;;;;;;;4973949;28;20023;-69
2023/08/09 05:06:17;;;;;;;3.78;2.17;;;;;;;;;;4973668;28;20476;-69
2023/08/09 05:08:44;;;;;;;3.90;1.95;;;;;;;;;;4973464;28;20027;-69
2023/08/09 05:11:11;;;;;;;4.85;2.00;;;;;;;;;;4973970;28;20023;-70
2023/08/09 05:13:37;;;;;;;4.80;2.05;;;;;;;;;;4973514;28;20419;-69
2023/08/09 05:16:03;;;;;;;4.25;2.50;;;;;;;;;;4973665;28;20076;-69
2023/08/09 05:18:30;;;;;;;6.70;2.63;;;;;;;;;;4976651;28;20035;-70
2023/08/09 05:20:58;;;;;;;4.35;2.10;;;;;;;;;;4977804;28;20057;-70
2023/08/09 05:23:24;;;;;;;2.67;1.70;;;;;;;;;;4977540;28;20035;-69
2023/08/09 05:25:50;;;;;;;4.00;1.90;;;;;;;;;;4977543;28;20026;-69
2023/08/09 05:28:16;;;;;;;7.68;2.20;;;;;;;;;;4977857;28;20057;-70
2023/08/09 05:30:43;;;;;;;6.28;2.15;;;;;;;;;;4977569;28;20053;-70
2023/08/09 05:33:09;;;;;;;5.28;2.20;;;;;;;;;;4977307;28;20070;-69
2023/08/09 05:35:36;;;;;;;3.67;2.03;;;;;;;;;;4977468;28;20468;-69
2023/08/09 05:38:02;;;;;;;2.90;1.95;;;;;;;;;;4977124;28;20035;-69
2023/08/09 05:40:28;;;;;;;2.53;2.00;;;;;;;;;;4977276;28;20464;-69
2023/08/09 05:42:55;;;;;;;3.22;2.40;;;;;;;;;;4977417;28;20486;-69
2023/08/09 05:45:21;;;;;;;3.70;2.15;;;;;;;;;;4977543;28;20073;-69
2023/08/09 05:47:48;;;;;;;4.45;2.47;;;;;;;;;;4977134;28;20019;-70
2023/08/09 05:50:15;;;;;;;4.20;2.08;;;;;;;;;;4977226;28;20031;-69
2023/08/09 05:52:41;;;;;;;3.90;2.53;;;;;;;;;;4976802;28;20042;-69
2023/08/09 05:55:08;;;;;;;3.70;2.28;;;;;;;;;;4977341;28;20052;-69
2023/08/09 05:57:36;;;;;;;5.45;2.10;;;;;;;;;;4977075;28;20482;-69
2023/08/09 06:00:02;;;;;;;4.30;2.20;;;;;;;;;;4977208;28;20026;-70
2023/08/09 06:02:33;;;;;;;3.30;2.13;;;;;;;;;;4976894;28;20011;-70
2023/08/09 06:05:00;;;;;;;3.90;2.17;;;;;;;;;;4976956;28;20495;-70
2023/08/09 06:07:27;;;;;;;3.40;2.28;;;;;;;;;;4976514;28;20393;-69
2023/08/09 06:09:54;;;;;;;7.20;1.90;;;;;;;;;;4975464;28;20041;-70
2023/08/09 06:12:20;;;;;;;3.30;2.45;;;;;;;;;;4973276;28;20045;-69
2023/08/09 06:14:46;;;;;;;4.63;2.17;;;;;;;;;;4972458;28;20787;-70
2023/08/09 06:17:13;;;;;;;3.58;2.15;;;;;;;;;;4971462;28;20859;-70
2023/08/09 06:19:39;;;;;;;4.00;2.28;;;;;;;;;;4975326;28;20021;-69
2023/08/09 06:22:05;;;;;;;2.70;2.00;;;;;;;;;;4965229;28;20581;-70
2023/08/09 06:24:32;;;;;;;3.20;2.28;;;;;;;;;;4976205;28;20033;-69
2023/08/09 06:26:58;;;;;;;3.42;2.28;;;;;;;;;;4975831;28;20027;-69
2023/08/09 06:29:24;;;;;;;12.20;2.30;;;;;;;;;;4975590;28;20033;-69
2023/08/09 06:31:51;;;;;;;5.32;2.40;;;;;;;;;;4975908;28;20042;-70
2023/08/09 06:34:17;;;;;;;5.68;2.22;;;;;;;;;;4975516;28;20027;-69
2023/08/09 06:36:43;;;;;;;4.15;2.22;;;;;;;;;;4975231;28;20030;-69
2023/08/09 06:39:10;;;;;;;4.47;2.05;;;;;;;;;;4975648;28;20031;-69
2023/08/09 06:41:36;;;;;;;6.15;2.75;;;;;;;;;;4975783;28;20394;-70
2023/08/09 06:44:02;;;;;;;6.70;2.60;;;;;;;;;;4975769;28;20475;-69
2023/08/09 06:46:29;;;;;;;3.95;2.15;;;;;;;;;;4975779;28;20034;-71
2023/08/09 06:48:55;;;;;;;8.07;2.40;;;;;;;;;;4972577;28;20553;-69
2023/08/09 06:51:21;;;;;;;3.97;2.65;;;;;;;;;;4973823;28;20039;-70
2023/08/09 06:53:48;;;;;;;3.88;2.20;;;;;;;;;;4962422;28;20023;-70
2023/08/09 06:56:14;;;;;;;2.80;2.20;;;;;;;;;;4961841;28;20038;-70
2023/08/09 06:58:41;;;;;;;3.28;2.28;;;;;;;;;;4961848;28;20030;-71
2023/08/09 07:01:09;;;;;;;4.95;2.20;;;;;;;;;;4971797;28;20045;-69
2023/08/09 07:03:35;;;;;;;3.25;2.38;;;;;;;;;;4973536;28;20025;-69
2023/08/09 07:06:02;;;;;;;13.02;2.65;;;;;;;;;;4973374;28;20073;-69
2023/08/09 07:08:28;;;;;;;2.92;2.38;;;;;;;;;;4972591;28;20041;-71
2023/08/09 07:10:55;;;;;;;6.68;2.13;;;;;;;;;;4971577;28;20025;-70
2023/08/09 07:13:22;;;;;;;8.23;2.67;;;;;;;;;;4972696;28;20049;-71
2023/08/09 07:15:48;;;;;;;7.82;2.88;;;;;;;;;;4972164;28;20023;-71
2023/08/09 07:18:15;;;;;;;6.80;2.80;;;;;;;;;;4971827;28;20034;-68
2023/08/09 07:20:41;;;;;;;11.13;2.40;;;;;;;;;;4954209;28;20031;-68
2023/08/09 07:23:07;;;;;;;6.72;2.40;;;;;;;;;;4959282;28;20035;-68
2023/08/09 07:25:34;;;;;;;5.13;2.20;;;;;;;;;;4971248;28;20056;-68
2023/08/09 07:28:00;;;;;;;7.25;2.22;;;;;;;;;;4973309;28;20041;-69
2023/08/09 07:30:26;;;;;;;2.28;2.08;;;;;;;;;;4963740;28;20023;-69
2023/08/09 07:32:53;;;;;;;3.63;2.28;;;;;;;;;;4972522;28;20046;-69
2023/08/09 07:35:19;;;;;;;3.53;2.30;;;;;;;;;;4971828;28;20037;-68
2023/08/09 07:37:46;;;;;;;5.80;2.25;;;;;;;;;;4970390;28;20034;-69
2023/08/09 07:40:13;;;;;;;7.55;2.35;;;;;;;;;;4965350;28;20106;-68
2023/08/09 07:42:40;;;;;;;5.55;2.17;;;;;;;;;;4972733;28;20079;-70
2023/08/09 07:45:07;;;;;;;3.88;2.28;;;;;;;;;;4973242;28;20042;-69
2023/08/09 07:47:33;;;;;;;3.75;1.98;;;;;;;;;;4972880;28;20026;-69
2023/08/09 07:50:00;;;;;;;4.15;2.10;;;;;;;;;;4954669;28;20058;-68
2023/08/09 07:52:27;;;;;;;4.13;2.30;;;;;;;;;;4971655;28;20035;-69
2023/08/09 07:54:53;;;;;;;5.40;2.42;;;;;;;;;;4970589;28;20037;-69
2023/08/09 07:57:19;;;;;;;4.15;2.10;;;;;;;;;;4973092;28;20023;-68
2023/08/09 07:59:45;;;;;;;8.18;2.10;;;;;;;;;;4962802;28;20031;-68
2023/08/09 08:02:12;;;;;;;3.45;2.30;;;;;;;;;;4972689;28;20019;-69
2023/08/09 08:04:39;;;;;;;2.50;2.08;;;;;;;;;;4969140;28;20027;-69
2023/08/09 08:07:06;;;;;;;2.33;2.10;;;;;;;;;;4972741;28;20023;-69
2023/08/09 08:09:32;;;;;;;7.38;2.13;;;;;;;;;;4973010;28;20041;-69
2023/08/09 08:11:59;;;;;;;2.38;2.10;;;;;;;;;;4971807;28;20035;-69
2023/08/09 08:14:26;;;;;;;8.05;4.00;;;;;;;;;;4959674;28;20050;-69
2023/08/09 08:16:52;;;;;;;2.42;2.20;;;;;;;;;;4960622;28;20033;-69
2023/08/09 08:19:18;;;;;;;3.47;2.20;;;;;;;;;;4972125;28;20018;-68
2023/08/09 08:21:45;;;;;;;2.58;2.10;;;;;;;;;;4972374;28;20060;-68
2023/08/09 08:24:11;;;;;;;3.38;2.30;;;;;;;;;;4968885;28;20033;-68
2023/08/09 08:26:38;;;;;;;3.90;2.25;;;;;;;;;;4972645;28;20081;-68
2023/08/09 08:29:04;;;;;;;8.85;2.45;;;;;;;;;;4970594;28;20090;-68
2023/08/09 08:31:32;;;;;;;4.45;2.17;;;;;;;;;;4971563;28;20416;-69
2023/08/09 08:33:59;;;;;;;3.45;2.30;;;;;;;;;;4968567;28;20049;-69
2023/08/09 08:36:25;;;;;;;4.95;2.10;;;;;;;;;;4971441;28;20414;-69
2023/08/09 08:38:52;;;;;;;6.97;2.00;;;;;;;;;;4972478;28;20029;-69
2023/08/09 08:41:19;;;;;;;2.45;2.03;;;;;;;;;;4972330;28;20383;-68
2023/08/09 08:43:45;;;;;;;2.35;2.15;;;;;;;;;;4970516;28;20030;-68
2023/08/09 08:46:16;;;;;;;5.97;2.00;;;;;;;;;;4972884;28;20019;-69
2023/08/09 08:48:45;;;;;;;2.30;2.17;;;;;;;;;;4967632;28;20031;-69
2023/08/09 08:51:11;;;;;;;;;;;;;;;;;;4968913;28;20037;-69
2023/08/09 08:53:37;;;;;;;3.58;2.58;;;;;;;;;;4972215;28;19910;-69
2023/08/09 08:56:04;;;;;;;2.33;2.22;;;;;;;;;;4972589;28;20419;-68
2023/08/09 08:58:31;;;;;;;3.15;2.13;;;;;;;;;;4971748;28;20029;-70
2023/08/09 09:00:58;;;;;;;2.42;2.20;;;;;;;;;;4972430;28;20037;-70
2023/08/09 09:03:24;;;;;;;3.22;2.53;;;;;;;;;;4972733;28;20480;-70
2023/08/09 09:05:50;;;;;;;2.95;2.03;;;;;;;;;;4972805;28;20035;-70
2023/08/09 09:08:17;;;;;;;4.93;2.10;;;;;;;;;;4972910;28;20045;-69
2023/08/09 09:10:44;;;;;;;5.30;2.22;;;;;;;;;;4969170;28;20043;-70
2023/08/09 09:13:22;;;;;;;2.45;2.33;;;;;;;;;;4969095;28;20053;-70
2023/08/09 09:15:49;;;;;;;2.50;2.30;;;;;;;;;;4971575;28;20027;-70
2023/08/09 09:18:15;;;;;;;3.90;2.35;;;;;;;;;;4971950;28;20035;-70
2023/08/09 09:20:42;;;;;;;2.65;2.28;;;;;;;;;;4971357;28;20084;-70
2023/08/09 09:23:08;;;;;;;2.20;2.10;;;;;;;;;;4971088;28;20023;-70
2023/08/09 09:25:35;;;;;;;5.22;2.45;;;;;;;;;;4969897;28;20073;-69
2023/08/09 09:28:01;;;;;;;2.40;2.20;;;;;;;;;;4971568;28;20022;-68
2023/08/09 09:30:31;;;;;;;2.38;2.20;;;;;;;;;;4970942;28;20038;-68
2023/08/09 09:32:59;;;;;;;4.70;2.45;;;;;;;;;;4966332;28;20053;-70
2023/08/09 09:35:26;;;;;;;3.13;2.83;;;;;;;;;;4956294;28;20065;-71
2023/08/09 09:37:54;;;;;;;3.13;2.15;;;;;;;;;;4965677;28;20031;-70
2023/08/09 09:40:23;;;;;;;3.15;2.70;;;;;;;;;;4972276;28;20035;-70
2023/08/09 09:42:53;;;;;;;3.33;2.10;;;;;;;;;;4960966;28;20400;-71
2023/08/09 09:45:23;;;;;;;2.60;2.13;;;;;;;;;;4971660;28;20061;-69
2023/08/09 09:47:51;;;;;;;4.65;2.30;;;;;;;;;;4971427;28;20034;-71
2023/08/09 09:50:18;;;;;;;3.35;2.10;;;;;;;;;;4971759;28;20027;-70
2023/08/09 09:52:46;;;;;;;2.40;2.20;;;;;;;;;;4971131;28;20039;-71
2023/08/09 09:55:13;;;;;;;2.47;2.15;;;;;;;;;;4971447;28;20484;-70
2023/08/09 09:57:40;;;;;;;5.18;2.00;;;;;;;;;;4971883;28;20393;-71
2023/08/09 10:00:08;;;;;;;2.03;1.80;;;;;;;;;;4971395;28;20034;-71
2023/08/09 10:02:47;;;;;;;1.85;1.75;;;;;;;;;;4970709;28;20029;-70
2023/08/09 10:05:18;;;;;;;1.90;1.70;;;;;;;;;;4973545;28;20030;-69
2023/08/09 10:07:45;;;;;;;1.85;1.50;;;;;;;;;;4974660;28;20043;-70
2023/08/09 10:10:13;;;;;;;2.10;1.90;;;;;;;;;;4975600;28;20042;-70
2023/08/09 10:12:41;;;;;;;2.00;1.80;;;;;;;;;;4974964;28;20030;-70
2023/08/09 10:15:08;;;;;;;;;;;;;;;;;;4974511;28;20073;-73
2023/08/09 10:17:34;;;;;;;1.98;1.77;;;;;;;;;;4973868;28;19936;-70
2023/08/09 10:20:01;;;;;;;6.32;1.73;;;;;;;;;;4975236;28;20026;-71
2023/08/09 10:22:27;;;;;;;4.30;1.90;;;;;;;;;;4970463;28;20427;-71
2023/08/09 10:24:56;;;;;;;1.92;1.67;;;;;;;;;;4975005;28;20035;-70
2023/08/09 10:27:22;;;;;;;;;;;;;;;;;;4975117;28;20031;-71
2023/08/09 10:29:56;;;;;;;1.83;1.73;;;;;;;;;;4973013;28;19910;-70
2023/08/09 10:32:43;;;;;;;1.85;1.65;;;;;;;;;;4973603;28;20092;-70
2023/08/09 10:35:15;;;;;;;2.50;1.77;;;;;;;;;;4975275;28;20084;-71
2023/08/09 10:37:43;;;;;;;1.60;1.50;;;;;;;;;;4958250;28;20031;-70
2023/08/09 10:40:15;;;;;;;1.90;1.50;;;;;;;;;;4975438;28;20395;-70
2023/08/09 10:42:45;;;;;;;6.32;1.73;;;;;;;;;;4975113;28;20019;-70
2023/08/09 10:45:11;;;;;;;2.50;2.00;;;;;;;;;;4975160;28;20023;-70
2023/08/09 10:47:39;;;;;;;8.45;6.05;;;;;;;;;;4975279;28;20407;-70
2023/08/09 10:50:10;;;;;;;2.33;2.13;;;;;;;;;;4974822;28;20018;-71
2023/08/09 10:52:38;;;;;;;3.50;1.60;;;;;;;;;;4974910;28;20037;-70
2023/08/09 10:55:10;;;;;;;1.95;1.60;;;;;;;;;;4974887;28;20023;-70
2023/08/09 10:57:43;;;;;;;3.80;1.65;;;;;;;;;;4974972;28;20033;-70
2023/08/09 11:00:13;;;;;;;1.77;1.67;;;;;;;;;;4975130;28;20387;-68
2023/08/09 11:02:48;;;;;;;5.03;1.70;;;;;;;;;;4974787;28;20037;-70
2023/08/09 11:05:14;;;;;;;10.63;3.85;;;;;;;;;;4974943;28;20031;-70
2023/08/09 11:07:51;;;;;;;4.43;3.20;;;;;;;;;;4974832;28;20030;-71
2023/08/09 11:10:30;;;;;;;4.28;3.00;;;;;;;;;;4974648;28;20061;-70
2023/08/09 11:12:56;;;;;;;3.88;3.53;;;;;;;;;;4973940;28;20043;-70
2023/08/09 11:15:22;;;;;;;5.25;2.50;;;;;;;;;;4974292;28;20179;-70
2023/08/09 11:17:49;;;;;;;1.75;1.50;;;;;;;;;;4974773;28;20041;-70
2023/08/09 11:20:16;;;;;;;1.95;1.63;;;;;;;;;;4975089;28;20022;-70
2023/08/09 11:22:53;;;;;;;1.75;1.65;;;;;;;;;;4974285;28;20035;-70
2023/08/09 11:25:19;;;;;;;1.88;1.63;;;;;;;;;;4974004;28;20041;-70
2023/08/09 11:27:46;;;;;;;2.00;1.63;;;;;;;;;;4975260;28;20034;-70
2023/08/09 11:30:12;;;;;;;1.88;1.55;;;;;;;;;;4974764;28;20033;-70
2023/08/09 11:32:39;;;;;;;1.73;1.30;;;;;;;;;;4974493;28;20492;-70
2023/08/09 11:35:05;;;;;;;3.65;1.52;;;;;;;;;;4974957;28;20038;-70
2023/08/09 11:37:32;;;;;;;2.50;1.77;;;;;;;;;;4974442;28;20023;-70
2023/08/09 11:39:58;;;;;;;1.90;1.77;;;;;;;;;;4988909;28;20037;-70
2023/08/09 11:42:24;;;;;;;1.60;1.50;;;;;;;;;;4989659;28;20030;-70
2023/08/09 11:44:50;;;;;;;1.80;1.60;;;;;;;;;;4989660;28;20063;-70
2023/08/09 11:47:17;;;;;;;4.22;1.95;;;;;;;;;;4974487;28;20501;-71
2023/08/09 11:49:43;;;;;;;2.80;2.00;;;;;;;;;;4974225;28;20022;-70
2023/08/09 11:52:16;;;;;;;1.45;1.35;;;;;;;;;;4974146;28;20039;-70
2023/08/09 11:54:43;;;;;;;2.63;1.50;;;;;;;;;;4973682;28;20766;-70
2023/08/09 11:57:09;;;;;;;1.45;1.35;;;;;;;;;;4974491;28;20031;-71
2023/08/09 11:59:38;;;;;;;2.53;1.67;;;;;;;;;;4974227;28;20026;-70
2023/08/09 12:02:06;;;;;;;5.07;2.15;;;;;;;;;;4974047;28;20027;-70
2023/08/09 12:04:33;;;;;;;4.22;1.30;;;;;;;;;;4974194;28;20038;-70
2023/08/09 12:07:05;;;;;;;3.60;1.60;;;;;;;;;;4988633;28;20387;-70
2023/08/09 12:09:37;;;;;;;4.07;1.80;;;;;;;;;;4970206;28;20023;-70
2023/08/09 12:12:34;;;;;;;2.97;1.40;;;;;;;;;;4972330;28;20035;-70
2023/08/09 12:15:00;;;;;;;7.40;1.95;;;;;;;;;;4973586;28;20045;-70
2023/08/09 12:17:27;;;;;;;2.30;1.58;;;;;;;;;;4973439;28;20029;-70
2023/08/09 12:19:58;;;;;;;4.00;1.70;;;;;;;;;;4974001;28;20038;-70
2023/08/09 12:22:28;;;;;;;2.63;1.80;;;;;;;;;;4973620;28;20027;-70
2023/08/09 12:24:55;;;;;;;2.38;1.90;;;;;;;;;;4973419;28;20414;-70
2023/08/09 12:27:21;;;;;;;1.83;1.50;;;;;;;;;;4973140;28;20394;-70
2023/08/09 12:29:48;;;;;;;3.67;1.70;;;;;;;;;;4973610;28;20033;-70
2023/08/09 12:32:14;;;;;;;2.30;1.77;;;;;;;;;;4973337;28;20042;-71
2023/08/09 12:34:41;;;;;;;5.15;1.70;;;;;;;;;;4971843;28;20031;-70
2023/08/09 12:37:07;;;;;;;1.60;1.50;;;;;;;;;;4959766;28;20387;-70
2023/08/09 12:39:36;;;;;;;4.22;1.65;;;;;;;;;;4953534;29;20020;-70
2023/08/09 12:42:03;;;;;;;2.22;1.60;;;;;;;;;;4953874;29;20035;-70
2023/08/09 12:44:30;;;;;;;2.67;2.15;;;;;;;;;;4953836;29;20027;-70
2023/08/09 12:46:56;;;;;;;2.05;1.83;;;;;;;;;;4954033;29;20023;-70
2023/08/09 12:49:22;;;;;;;1.65;1.55;;;;;;;;;;4953815;29;20054;-70
2023/08/09 12:51:49;;;;;;;10.52;1.90;;;;;;;;;;4953366;29;20041;-70
2023/08/09 12:54:16;;;;;;;4.82;1.50;;;;;;;;;;4959535;28;20037;-69
2023/08/09 12:56:42;;;;;;;4.43;1.65;;;;;;;;;;4972906;28;20625;-70
2023/08/09 12:59:09;;;;;;;2.58;1.88;;;;;;;;;;4972988;28;20031;-70
2023/08/09 13:01:36;;;;;;;1.90;1.67;;;;;;;;;;4973107;28;20045;-70
2023/08/09 13:04:02;;;;;;;2.95;1.80;;;;;;;;;;4973033;28;20034;-70
2023/08/09 13:06:29;;;;;;;3.45;1.60;;;;;;;;;;4973142;28;20030;-69
2023/08/09 13:08:57;;;;;;;3.92;1.95;;;;;;;;;;4972594;28;20025;-70
2023/08/09 13:11:24;;;;;;;3.00;2.38;;;;;;;;;;4972273;28;20035;-70
2023/08/09 13:13:50;;;;;;;2.90;2.60;;;;;;;;;;4972721;28;20054;-70
2023/08/09 13:16:16;;;;;;;3.83;2.80;;;;;;;;;;4972907;28;20031;-70
2023/08/09 13:18:43;;;;;;;4.78;2.92;;;;;;;;;;4972865;28;20038;-70
2023/08/09 13:21:11;;;;;;;3.30;3.00;;;;;;;;;;4972690;28;20025;-70
2023/08/09 13:23:37;;;;;;;3.33;2.80;;;;;;;;;;4972497;28;20468;-70
2023/08/09 13:26:05;;;;;;;2.97;2.78;;;;;;;;;;4972764;28;20027;-70
2023/08/09 13:28:31;;;;;;;3.22;2.92;;;;;;;;;;4972466;28;20031;-70
2023/08/09 13:30:57;;;;;;;2.83;2.47;;;;;;;;;;4972401;28;20037;-70
2023/08/09 13:33:23;;;;;;;3.85;2.97;;;;;;;;;;4972491;28;20027;-70
2023/08/09 13:35:50;;;;;;;4.60;3.30;;;;;;;;;;4972436;28;20023;-70
2023/08/09 13:38:26;;;;;;;3.25;2.85;;;;;;;;;;4972413;28;20030;-70
2023/08/09 13:40:54;;;;;;;3.75;2.80;;;;;;;;;;4976444;28;20019;-70
2023/08/09 13:43:21;;;;;;;3.15;2.60;;;;;;;;;;4976343;28;20031;-70
2023/08/09 13:45:47;;;;;;;5.28;3.00;;;;;;;;;;4976342;28;20407;-70
2023/08/09 13:48:13;;;;;;;3.30;3.00;;;;;;;;;;4976605;28;20034;-70
2023/08/09 13:50:40;;;;;;;3.10;2.80;;;;;;;;;;4975800;28;20027;-70
2023/08/09 13:53:06;;;;;;;3.55;3.15;;;;;;;;;;4976063;28;20045;-70
2023/08/09 13:55:32;;;;;;;3.22;2.90;;;;;;;;;;4976846;28;20022;-69
2023/08/09 13:57:59;;;;;;;3.50;3.20;;;;;;;;;;4976018;28;20427;-70
2023/08/09 14:00:25;;;;;;;3.75;3.45;;;;;;;;;;4976294;28;20077;-69
2023/08/09 14:02:52;;;;;;;4.85;4.18;;;;;;;;;;4976472;28;20034;-69
2023/08/09 14:05:18;;;;;;;9.52;6.47;;;;;;;;;;4973736;28;20467;-70
2023/08/09 14:07:45;;;;;;;6.28;5.68;;;;;;;;;;4972861;28;20092;-71
2023/08/09 14:10:11;;;;;;;6.30;5.70;;;;;;;;;;4976015;28;20037;-70
2023/08/09 14:12:37;;;;;;;7.00;6.30;;;;;;;;;;4975898;28;20581;-70
2023/08/09 14:15:04;;;;;;;6.57;5.90;;;;;;;;;;4975879;28;20539;-71
2023/08/09 14:17:30;;;;;;;6.13;5.55;;;;;;;;;;4983267;28;20502;-70
2023/08/09 14:19:57;;;;;;;5.40;4.90;;;;;;;;;;4976319;28;20038;-70
2023/08/09 14:22:25;;;;;;;4.88;4.47;;;;;;;;;;4976286;28;20023;-71
2023/08/09 14:24:51;;;;;;;5.70;5.10;;;;;;;;;;4976515;28;20033;-70
2023/08/09 14:27:17;;;;;;;6.13;4.88;;;;;;;;;;4976184;28;20029;-70
2023/08/09 14:29:45;;;;;;;7.45;4.63;;;;;;;;;;4976156;28;20033;-70
2023/08/09 14:32:12;;;;;;;5.70;5.20;;;;;;;;;;4976332;28;20406;-70
2023/08/09 14:34:38;;;;;;;6.07;5.55;;;;;;;;;;4975882;28;20383;-70
2023/08/09 14:37:05;;;;;;;5.82;5.32;;;;;;;;;;4975993;28;20499;-70
2023/08/09 14:39:36;;;;;;;5.78;5.28;;;;;;;;;;4975932;28;20381;-70
2023/08/09 14:42:03;;;;;;;5.07;4.57;;;;;;;;;;4976005;28;20399;-70
2023/08/09 14:44:29;;;;;;;4.60;4.20;;;;;;;;;;4975932;28;20402;-71